Check out our new PWSWeather beta!
PWSweather.com
Personal Weather Stations
Station Observations
WD4JKH
Forsyth, GA 31029

Forsyth, GA 31029

Lat: 33.033225, Lon: -83.927995

Elevation: 709

Station Type: Davis Vantage VUE

High Low Average
Temperature 60.5°F15.8°C 38.4°F3.6°C 48.0°F8.9°C
Dew Point 45.0°F7.2°C 36.1°F2.3°C 40.4°F4.7°C
Winds 4.2 mph 6.8 kmh Calm Calm 2.0 mph WSW3.2 kmh WSW
Wind Gusts 9.0 mph14.5 kmh -- 5.0 mph8.0 kmh
Humidity 92% 53% 76%
Pressure 30.00 in1015.9 mb 29.91 in1012.9 mb -
Precipitation 0.00 in0.0 mm - -
Hour Temp Dew Point Humidity Winds Wind Gusts Pressure Precip Precip Rate Daily Precip Total
12:04 AM 42.0°F5.6°C 39.5°F4.2°C 91% 1.7 mph W2.7 kmh W 4.0 mph6.4 kmh 29.93 in1013.5 mb 0.00 in0.0 mm 0.00 in0.0 mm 0.00 in0.0 mm
12:09 AM 42.0°F5.6°C 39.2°F4.0°C 90% 1.2 mph WSW1.9 kmh WSW 4.0 mph6.4 kmh 29.93 in1013.5 mb 0.00 in0.0 mm 0.00 in0.0 mm 0.00 in0.0 mm
12:14 AM 41.9°F5.5°C 39.1°F3.9°C 90% 1.9 mph WSW3.1 kmh WSW 4.0 mph6.4 kmh 29.93 in1013.5 mb 0.00 in0.0 mm 0.00 in0.0 mm 0.00 in0.0 mm
12:19 AM 41.9°F5.5°C 39.1°F3.9°C 90% 1.5 mph WSW2.4 kmh WSW 4.0 mph6.4 kmh 29.93 in1013.5 mb 0.00 in0.0 mm 0.00 in0.0 mm 0.00 in0.0 mm
12:24 AM 41.8°F5.4°C 39.0°F3.9°C 90% 1.4 mph W2.3 kmh W 4.0 mph6.4 kmh 29.93 in1013.5 mb 0.00 in0.0 mm 0.00 in0.0 mm 0.00 in0.0 mm
12:29 AM 41.7°F5.4°C 38.9°F3.8°C 90% 1.1 mph WSW1.8 kmh WSW 4.0 mph6.4 kmh 29.93 in1013.5 mb 0.00 in0.0 mm 0.00 in0.0 mm 0.00 in0.0 mm
12:34 AM 41.7°F5.4°C 38.9°F3.8°C 90% 2.1 mph WSW3.4 kmh WSW 5.0 mph8.0 kmh 29.93 in1013.5 mb 0.00 in0.0 mm 0.00 in0.0 mm 0.00 in0.0 mm
12:39 AM 41.7°F5.4°C 39.0°F3.9°C 90% 1.3 mph WSW2.1 kmh WSW 5.0 mph8.0 kmh 29.92 in1013.2 mb 0.00 in0.0 mm 0.00 in0.0 mm 0.00 in0.0 mm
12:44 AM 41.7°F5.4°C 38.9°F3.8°C 90% 1.3 mph WSW2.1 kmh WSW 5.0 mph8.0 kmh 29.92 in1013.2 mb 0.00 in0.0 mm 0.00 in0.0 mm 0.00 in0.0 mm
12:49 AM 41.7°F5.4°C 38.9°F3.8°C 90% 1.8 mph W2.9 kmh W 5.0 mph8.0 kmh 29.92 in1013.2 mb 0.00 in0.0 mm 0.00 in0.0 mm 0.00 in0.0 mm
12:54 AM 41.7°F5.4°C 38.9°F3.8°C 90% 1.4 mph W2.3 kmh W 4.0 mph6.4 kmh 29.92 in1013.2 mb 0.00 in0.0 mm 0.00 in0.0 mm 0.00 in0.0 mm
12:59 AM 41.6°F5.3°C 38.9°F3.8°C 90% 1.7 mph WSW2.7 kmh WSW 4.0 mph6.4 kmh 29.92 in1013.2 mb 0.00 in0.0 mm 0.00 in0.0 mm 0.00 in0.0 mm
01:04 AM 41.5°F5.3°C 38.7°F3.7°C 90% 1.3 mph WSW2.1 kmh WSW 4.0 mph6.4 kmh 29.92 in1013.2 mb 0.00 in0.0 mm 0.00 in0.0 mm 0.00 in0.0 mm
01:09 AM 41.3°F5.2°C 38.5°F3.6°C 90% 1.2 mph W1.9 kmh W 4.0 mph6.4 kmh 29.92 in1013.2 mb 0.00 in0.0 mm 0.00 in0.0 mm 0.00 in0.0 mm
01:14 AM 41.3°F5.2°C 38.6°F3.7°C 90% 1.2 mph W1.9 kmh W 4.0 mph6.4 kmh 29.92 in1013.2 mb 0.00 in0.0 mm 0.00 in0.0 mm 0.00 in0.0 mm
01:19 AM 41.3°F5.2°C 38.5°F3.6°C 90% 1.4 mph W2.3 kmh W 3.0 mph4.8 kmh 29.92 in1013.2 mb 0.00 in0.0 mm 0.00 in0.0 mm 0.00 in0.0 mm
01:24 AM 41.3°F5.2°C 38.3°F3.5°C 89% 1.0 mph WSW1.6 kmh WSW 3.0 mph4.8 kmh 29.92 in1013.2 mb 0.00 in0.0 mm 0.00 in0.0 mm 0.00 in0.0 mm
01:29 AM 41.2°F5.1°C 38.2°F3.4°C 89% 1.1 mph WSW1.8 kmh WSW 3.0 mph4.8 kmh 29.92 in1013.2 mb 0.00 in0.0 mm 0.00 in0.0 mm 0.00 in0.0 mm
01:34 AM 41.2°F5.1°C 38.4°F3.6°C 90% 1.2 mph WSW1.9 kmh WSW 3.0 mph4.8 kmh 29.91 in1012.9 mb 0.00 in0.0 mm 0.00 in0.0 mm 0.00 in0.0 mm
01:39 AM 40.9°F4.9°C 38.2°F3.4°C 90% 1.7 mph WSW2.7 kmh WSW 3.0 mph4.8 kmh 29.92 in1013.2 mb 0.00 in0.0 mm 0.00 in0.0 mm 0.00 in0.0 mm
01:44 AM 40.7°F4.8°C 38.0°F3.3°C 90% 1.6 mph WSW2.6 kmh WSW 3.0 mph4.8 kmh 29.92 in1013.2 mb 0.00 in0.0 mm 0.00 in0.0 mm 0.00 in0.0 mm
01:49 AM 40.4°F4.7°C 37.9°F3.3°C 91% 1.6 mph SW2.6 kmh SW 3.0 mph4.8 kmh 29.91 in1012.9 mb 0.00 in0.0 mm 0.00 in0.0 mm 0.00 in0.0 mm
01:54 AM 40.3°F4.6°C 37.8°F3.2°C 91% 1.2 mph WSW1.9 kmh WSW 3.0 mph4.8 kmh 29.91 in1012.9 mb 0.00 in0.0 mm 0.00 in0.0 mm 0.00 in0.0 mm
01:55 AM 40.3°F4.6°C 37.9°F3.3°C 91% 1.5 mph WSW2.4 kmh WSW 3.0 mph4.8 kmh 29.91 in1012.9 mb 0.00 in0.0 mm 0.00 in0.0 mm 0.00 in0.0 mm
02:00 AM 40.3°F4.6°C 37.8°F3.2°C 91% 1.3 mph WSW2.1 kmh WSW 4.0 mph6.4 kmh 29.91 in1012.9 mb 0.00 in0.0 mm 0.00 in0.0 mm 0.00 in0.0 mm
02:06 AM 40.2°F4.6°C 37.5°F3.1°C 90% 1.4 mph WSW2.3 kmh WSW 4.0 mph6.4 kmh 29.92 in1013.2 mb 0.00 in0.0 mm 0.00 in0.0 mm 0.00 in0.0 mm
02:11 AM 40.0°F4.4°C 37.5°F3.1°C 91% 1.8 mph WSW2.9 kmh WSW 4.0 mph6.4 kmh 29.92 in1013.2 mb 0.00 in0.0 mm 0.00 in0.0 mm 0.00 in0.0 mm
02:16 AM 40.0°F4.4°C 37.5°F3.1°C 91% 1.4 mph W2.3 kmh W 4.0 mph6.4 kmh 29.91 in1012.9 mb 0.00 in0.0 mm 0.00 in0.0 mm 0.00 in0.0 mm
02:21 AM 40.0°F4.4°C 37.5°F3.1°C 91% 1.5 mph W2.4 kmh W 4.0 mph6.4 kmh 29.91 in1012.9 mb 0.00 in0.0 mm 0.00 in0.0 mm 0.00 in0.0 mm
02:26 AM 40.3°F4.6°C 37.8°F3.2°C 91% 1.6 mph W2.6 kmh W 4.0 mph6.4 kmh 29.91 in1012.9 mb 0.00 in0.0 mm 0.00 in0.0 mm 0.00 in0.0 mm
02:31 AM 40.7°F4.8°C 38.2°F3.4°C 91% 2.6 mph WNW4.2 kmh WNW 6.0 mph9.7 kmh 29.91 in1012.9 mb 0.00 in0.0 mm 0.00 in0.0 mm 0.00 in0.0 mm
02:36 AM 41.3°F5.2°C 38.3°F3.5°C 89% 1.9 mph WNW3.1 kmh WNW 6.0 mph9.7 kmh 29.91 in1012.9 mb 0.00 in0.0 mm 0.00 in0.0 mm 0.00 in0.0 mm
02:41 AM 41.7°F5.4°C 38.4°F3.6°C 88% 1.6 mph WNW2.6 kmh WNW 6.0 mph9.7 kmh 29.91 in1012.9 mb 0.00 in0.0 mm 0.00 in0.0 mm 0.00 in0.0 mm
02:46 AM 41.9°F5.5°C 38.3°F3.5°C 87% 1.3 mph W2.1 kmh W 6.0 mph9.7 kmh 29.91 in1012.9 mb 0.00 in0.0 mm 0.00 in0.0 mm 0.00 in0.0 mm
02:51 AM 41.7°F5.4°C 38.1°F3.4°C 87% 1.7 mph W2.7 kmh W 6.0 mph9.7 kmh 29.91 in1012.9 mb 0.00 in0.0 mm 0.00 in0.0 mm 0.00 in0.0 mm
02:56 AM 41.4°F5.2°C 37.8°F3.2°C 87% 1.9 mph W3.1 kmh W 5.0 mph8.0 kmh 29.91 in1012.9 mb 0.00 in0.0 mm 0.00 in0.0 mm 0.00 in0.0 mm
03:01 AM 41.1°F5.1°C 37.8°F3.2°C 88% 1.9 mph W3.1 kmh W 5.0 mph8.0 kmh 29.91 in1012.9 mb 0.00 in0.0 mm 0.00 in0.0 mm 0.00 in0.0 mm
03:06 AM 40.7°F4.8°C 37.4°F3.0°C 88% 1.9 mph W3.1 kmh W 6.0 mph9.7 kmh 29.92 in1013.2 mb 0.00 in0.0 mm 0.00 in0.0 mm 0.00 in0.0 mm
03:11 AM 40.4°F4.7°C 37.4°F3.0°C 89% 2.5 mph WSW4.0 kmh WSW 6.0 mph9.7 kmh 29.92 in1013.2 mb 0.00 in0.0 mm 0.00 in0.0 mm 0.00 in0.0 mm
03:16 AM 40.2°F4.6°C 37.2°F2.9°C 89% 1.3 mph WSW2.1 kmh WSW 6.0 mph9.7 kmh 29.92 in1013.2 mb 0.00 in0.0 mm 0.00 in0.0 mm 0.00 in0.0 mm
03:21 AM 40.0°F4.4°C 37.3°F2.9°C 90% 1.8 mph WSW2.9 kmh WSW 6.0 mph9.7 kmh 29.92 in1013.2 mb 0.00 in0.0 mm 0.00 in0.0 mm 0.00 in0.0 mm
03:26 AM 39.8°F4.3°C 37.1°F2.8°C 90% 2.1 mph WSW3.4 kmh WSW 5.0 mph8.0 kmh 29.92 in1013.2 mb 0.00 in0.0 mm 0.00 in0.0 mm 0.00 in0.0 mm
03:31 AM 39.5°F4.2°C 36.8°F2.7°C 90% 2.2 mph WSW3.5 kmh WSW 5.0 mph8.0 kmh 29.92 in1013.2 mb 0.00 in0.0 mm 0.00 in0.0 mm 0.00 in0.0 mm
03:36 AM 39.2°F4.0°C 36.8°F2.7°C 91% 1.6 mph WSW2.6 kmh WSW 5.0 mph8.0 kmh 29.92 in1013.2 mb 0.00 in0.0 mm 0.00 in0.0 mm 0.00 in0.0 mm
03:41 AM 39.1°F3.9°C 36.6°F2.6°C 91% 1.2 mph WSW1.9 kmh WSW 5.0 mph8.0 kmh 29.92 in1013.2 mb 0.00 in0.0 mm 0.00 in0.0 mm 0.00 in0.0 mm
03:46 AM 38.9°F3.8°C 36.5°F2.5°C 91% 1.5 mph WSW2.4 kmh WSW 5.0 mph8.0 kmh 29.92 in1013.2 mb 0.00 in0.0 mm 0.00 in0.0 mm 0.00 in0.0 mm
03:51 AM 38.9°F3.8°C 36.5°F2.5°C 91% 1.2 mph WSW1.9 kmh WSW 3.0 mph4.8 kmh 29.92 in1013.2 mb 0.00 in0.0 mm 0.00 in0.0 mm 0.00 in0.0 mm
03:56 AM 38.7°F3.7°C 36.3°F2.4°C 91% 1.4 mph WSW2.3 kmh WSW 3.0 mph4.8 kmh 29.92 in1013.2 mb 0.00 in0.0 mm 0.00 in0.0 mm 0.00 in0.0 mm
04:01 AM 38.5°F3.6°C 36.3°F2.4°C 92% 1.8 mph WSW2.9 kmh WSW 5.0 mph8.0 kmh 29.92 in1013.2 mb 0.00 in0.0 mm 0.00 in0.0 mm 0.00 in0.0 mm
04:06 AM 38.5°F3.6°C 36.4°F2.4°C 92% 1.5 mph WSW2.4 kmh WSW 5.0 mph8.0 kmh 29.92 in1013.2 mb 0.00 in0.0 mm 0.00 in0.0 mm 0.00 in0.0 mm
04:11 AM 38.4°F3.6°C 36.2°F2.3°C 92% 1.4 mph WSW2.3 kmh WSW 5.0 mph8.0 kmh 29.92 in1013.2 mb 0.00 in0.0 mm 0.00 in0.0 mm 0.00 in0.0 mm
04:16 AM 38.4°F3.6°C 36.2°F2.3°C 92% 1.6 mph W2.6 kmh W 5.0 mph8.0 kmh 29.92 in1013.2 mb 0.00 in0.0 mm 0.00 in0.0 mm 0.00 in0.0 mm
04:21 AM 38.7°F3.7°C 36.5°F2.5°C 92% 1.9 mph W3.1 kmh W 5.0 mph8.0 kmh 29.91 in1012.9 mb 0.00 in0.0 mm 0.00 in0.0 mm 0.00 in0.0 mm
04:26 AM 39.1°F3.9°C 36.9°F2.7°C 92% 1.7 mph W2.7 kmh W 5.0 mph8.0 kmh 29.91 in1012.9 mb 0.00 in0.0 mm 0.00 in0.0 mm 0.00 in0.0 mm
04:31 AM 39.4°F4.1°C 37.0°F2.8°C 91% 1.8 mph W2.9 kmh W 5.0 mph8.0 kmh 29.91 in1012.9 mb 0.00 in0.0 mm 0.00 in0.0 mm 0.00 in0.0 mm
04:36 AM 39.4°F4.1°C 36.7°F2.6°C 90% 1.2 mph W1.9 kmh W 5.0 mph8.0 kmh 29.91 in1012.9 mb 0.00 in0.0 mm 0.00 in0.0 mm 0.00 in0.0 mm
04:41 AM 39.6°F4.2°C 36.9°F2.7°C 90% 1.9 mph W3.1 kmh W 5.0 mph8.0 kmh 29.91 in1012.9 mb 0.00 in0.0 mm 0.00 in0.0 mm 0.00 in0.0 mm
04:46 AM 39.6°F4.2°C 36.9°F2.7°C 90% 1.8 mph W2.9 kmh W 5.0 mph8.0 kmh 29.91 in1012.9 mb 0.00 in0.0 mm 0.00 in0.0 mm 0.00 in0.0 mm
04:51 AM 39.8°F4.3°C 37.1°F2.8°C 90% 2.6 mph WNW4.2 kmh WNW 7.0 mph11.3 kmh 29.91 in1012.9 mb 0.00 in0.0 mm 0.00 in0.0 mm 0.00 in0.0 mm
04:56 AM 40.3°F4.6°C 37.3°F2.9°C 89% 2.5 mph WNW4.0 kmh WNW 7.0 mph11.3 kmh 29.91 in1012.9 mb 0.00 in0.0 mm 0.00 in0.0 mm 0.00 in0.0 mm
05:01 AM 40.6°F4.8°C 37.6°F3.1°C 89% 2.4 mph WNW3.9 kmh WNW 7.0 mph11.3 kmh 29.91 in1012.9 mb 0.00 in0.0 mm 0.00 in0.0 mm 0.00 in0.0 mm
05:06 AM 40.9°F4.9°C 37.6°F3.1°C 88% 2.6 mph WNW4.2 kmh WNW 7.0 mph11.3 kmh 29.91 in1012.9 mb 0.00 in0.0 mm 0.00 in0.0 mm 0.00 in0.0 mm
05:11 AM 40.9°F4.9°C 37.3°F2.9°C 87% 2.3 mph WNW3.7 kmh WNW 7.0 mph11.3 kmh 29.91 in1012.9 mb 0.00 in0.0 mm 0.00 in0.0 mm 0.00 in0.0 mm
05:16 AM 41.1°F5.1°C 37.5°F3.1°C 87% 3.0 mph WNW4.8 kmh WNW 9.0 mph14.5 kmh 29.92 in1013.2 mb 0.00 in0.0 mm 0.00 in0.0 mm 0.00 in0.0 mm
05:21 AM 41.1°F5.1°C 37.5°F3.1°C 87% 2.2 mph WNW3.5 kmh WNW 9.0 mph14.5 kmh 29.91 in1012.9 mb 0.00 in0.0 mm 0.00 in0.0 mm 0.00 in0.0 mm
05:26 AM 41.0°F5.0°C 37.4°F3.0°C 87% 2.5 mph WNW4.0 kmh WNW 9.0 mph14.5 kmh 29.91 in1012.9 mb 0.00 in0.0 mm 0.00 in0.0 mm 0.00 in0.0 mm
05:31 AM 41.0°F5.0°C 37.4°F3.0°C 87% 2.0 mph NW3.2 kmh NW 9.0 mph14.5 kmh 29.91 in1012.9 mb 0.00 in0.0 mm 0.00 in0.0 mm 0.00 in0.0 mm
05:36 AM 40.9°F4.9°C 37.3°F2.9°C 87% 2.3 mph NW3.7 kmh NW 7.0 mph11.3 kmh 29.91 in1012.9 mb 0.00 in0.0 mm 0.00 in0.0 mm 0.00 in0.0 mm
05:41 AM 40.7°F4.8°C 37.1°F2.8°C 87% 1.8 mph NW2.9 kmh NW 7.0 mph11.3 kmh 29.91 in1012.9 mb 0.00 in0.0 mm 0.00 in0.0 mm 0.00 in0.0 mm
05:46 AM 40.5°F4.7°C 37.2°F2.9°C 88% 1.9 mph NW3.1 kmh NW 7.0 mph11.3 kmh 29.92 in1013.2 mb 0.00 in0.0 mm 0.00 in0.0 mm 0.00 in0.0 mm
05:51 AM 40.4°F4.7°C 37.1°F2.8°C 88% 1.9 mph WNW3.1 kmh WNW 7.0 mph11.3 kmh 29.92 in1013.2 mb 0.00 in0.0 mm 0.00 in0.0 mm 0.00 in0.0 mm
05:56 AM 40.4°F4.7°C 37.1°F2.8°C 88% 2.3 mph NW3.7 kmh NW 6.0 mph9.7 kmh 29.92 in1013.2 mb 0.00 in0.0 mm 0.00 in0.0 mm 0.00 in0.0 mm
06:01 AM 40.3°F4.6°C 37.0°F2.8°C 88% 2.0 mph WNW3.2 kmh WNW 6.0 mph9.7 kmh 29.92 in1013.2 mb 0.00 in0.0 mm 0.00 in0.0 mm 0.00 in0.0 mm
06:06 AM 40.3°F4.6°C 37.0°F2.8°C 88% 2.0 mph WNW3.2 kmh WNW 6.0 mph9.7 kmh 29.92 in1013.2 mb 0.00 in0.0 mm 0.00 in0.0 mm 0.00 in0.0 mm
06:11 AM 40.2°F4.6°C 36.9°F2.7°C 88% 2.1 mph WNW3.4 kmh WNW 6.0 mph9.7 kmh 29.92 in1013.2 mb 0.00 in0.0 mm 0.00 in0.0 mm 0.00 in0.0 mm
06:16 AM 40.1°F4.5°C 36.8°F2.7°C 88% 2.1 mph W3.4 kmh W 5.0 mph8.0 kmh 29.92 in1013.2 mb 0.00 in0.0 mm 0.00 in0.0 mm 0.00 in0.0 mm
06:21 AM 40.1°F4.5°C 36.8°F2.7°C 88% 1.9 mph WNW3.1 kmh WNW 5.0 mph8.0 kmh 29.92 in1013.2 mb 0.00 in0.0 mm 0.00 in0.0 mm 0.00 in0.0 mm
06:26 AM 40.2°F4.6°C 36.9°F2.7°C 88% 2.1 mph WNW3.4 kmh WNW 7.0 mph11.3 kmh 29.92 in1013.2 mb 0.00 in0.0 mm 0.00 in0.0 mm 0.00 in0.0 mm
06:31 AM 40.1°F4.5°C 36.8°F2.7°C 88% 1.6 mph WNW2.6 kmh WNW 7.0 mph11.3 kmh 29.92 in1013.2 mb 0.00 in0.0 mm 0.00 in0.0 mm 0.00 in0.0 mm
06:36 AM 40.1°F4.5°C 36.8°F2.7°C 88% 2.1 mph WNW3.4 kmh WNW 7.0 mph11.3 kmh 29.93 in1013.5 mb 0.00 in0.0 mm 0.00 in0.0 mm 0.00 in0.0 mm
06:41 AM 40.1°F4.5°C 36.8°F2.7°C 88% 1.5 mph WNW2.4 kmh WNW 7.0 mph11.3 kmh 29.92 in1013.2 mb 0.00 in0.0 mm 0.00 in0.0 mm 0.00 in0.0 mm
06:46 AM 39.9°F4.4°C 36.6°F2.6°C 88% 1.8 mph WNW2.9 kmh WNW 5.0 mph8.0 kmh 29.93 in1013.5 mb 0.00 in0.0 mm 0.00 in0.0 mm 0.00 in0.0 mm
06:51 AM 39.7°F4.3°C 36.4°F2.4°C 88% 1.2 mph WNW1.9 kmh WNW 5.0 mph8.0 kmh 29.93 in1013.5 mb 0.00 in0.0 mm 0.00 in0.0 mm 0.00 in0.0 mm
06:56 AM 39.5°F4.2°C 36.5°F2.5°C 89% 1.2 mph WNW1.9 kmh WNW 5.0 mph8.0 kmh 29.93 in1013.5 mb 0.00 in0.0 mm 0.00 in0.0 mm 0.00 in0.0 mm
07:01 AM 39.5°F4.2°C 36.5°F2.5°C 89% 1.1 mph W1.8 kmh W 4.0 mph6.4 kmh 29.93 in1013.5 mb 0.00 in0.0 mm 0.00 in0.0 mm 0.00 in0.0 mm
07:06 AM 39.3°F4.1°C 36.3°F2.4°C 89% 1.0 mph W1.6 kmh W 4.0 mph6.4 kmh 29.93 in1013.5 mb 0.00 in0.0 mm 0.00 in0.0 mm 0.00 in0.0 mm
07:11 AM 39.0°F3.9°C 36.3°F2.4°C 90% 1.0 mph W1.6 kmh W 4.0 mph6.4 kmh 29.93 in1013.5 mb 0.00 in0.0 mm 0.00 in0.0 mm 0.00 in0.0 mm
07:16 AM 38.9°F3.8°C 36.2°F2.3°C 90% 1.2 mph W1.9 kmh W 4.0 mph6.4 kmh 29.93 in1013.5 mb 0.00 in0.0 mm 0.00 in0.0 mm 0.00 in0.0 mm
07:21 AM 38.9°F3.8°C 36.2°F2.3°C 90% 1.0 mph WSW1.6 kmh WSW 2.0 mph3.2 kmh 29.93 in1013.5 mb 0.00 in0.0 mm 0.00 in0.0 mm 0.00 in0.0 mm
07:26 AM 38.9°F3.8°C 36.2°F2.3°C 90% 1.0 mph WSW1.6 kmh WSW 2.0 mph3.2 kmh 29.93 in1013.5 mb 0.00 in0.0 mm 0.00 in0.0 mm 0.00 in0.0 mm
07:31 AM 38.9°F3.8°C 36.2°F2.3°C 90% 1.0 mph WSW1.6 kmh WSW 2.0 mph3.2 kmh 29.93 in1013.5 mb 0.00 in0.0 mm 0.00 in0.0 mm 0.00 in0.0 mm
07:36 AM 38.8°F3.8°C 36.1°F2.3°C 90% 1.2 mph W1.9 kmh W 2.0 mph3.2 kmh 29.93 in1013.5 mb 0.00 in0.0 mm 0.00 in0.0 mm 0.00 in0.0 mm
07:41 AM 38.9°F3.8°C 36.2°F2.3°C 90% 1.3 mph WSW2.1 kmh WSW 2.0 mph3.2 kmh 29.94 in1013.9 mb 0.00 in0.0 mm 0.00 in0.0 mm 0.00 in0.0 mm
07:46 AM 39.1°F3.9°C 36.4°F2.4°C 90% Calm Calm 2.0 mph3.2 kmh 29.94 in1013.9 mb 0.00 in0.0 mm 0.00 in0.0 mm 0.00 in0.0 mm
07:51 AM 39.5°F4.2°C 36.8°F2.7°C 90% 1.4 mph WNW2.3 kmh WNW 3.0 mph4.8 kmh 29.94 in1013.9 mb 0.00 in0.0 mm 0.00 in0.0 mm 0.00 in0.0 mm
07:56 AM 39.9°F4.4°C 36.9°F2.7°C 89% 1.0 mph WNW1.6 kmh WNW 5.0 mph8.0 kmh 29.94 in1013.9 mb 0.00 in0.0 mm 0.00 in0.0 mm 0.00 in0.0 mm
08:01 AM 40.1°F4.5°C 37.1°F2.8°C 89% 1.0 mph W1.6 kmh W 5.0 mph8.0 kmh 29.95 in1014.2 mb 0.00 in0.0 mm 0.00 in0.0 mm 0.00 in0.0 mm
08:06 AM 40.1°F4.5°C 36.8°F2.7°C 88% 1.0 mph W1.6 kmh W 5.0 mph8.0 kmh 29.95 in1014.2 mb 0.00 in0.0 mm 0.00 in0.0 mm 0.00 in0.0 mm
08:11 AM 40.2°F4.6°C 36.9°F2.7°C 88% 1.1 mph WNW1.8 kmh WNW 3.0 mph4.8 kmh 29.95 in1014.2 mb 0.00 in0.0 mm 0.00 in0.0 mm 0.00 in0.0 mm
08:16 AM 40.1°F4.5°C 36.8°F2.7°C 88% 1.1 mph W1.8 kmh W 3.0 mph4.8 kmh 29.95 in1014.2 mb 0.00 in0.0 mm 0.00 in0.0 mm 0.00 in0.0 mm
08:21 AM 40.1°F4.5°C 36.8°F2.7°C 88% 1.2 mph W1.9 kmh W 3.0 mph4.8 kmh 29.95 in1014.2 mb 0.00 in0.0 mm 0.00 in0.0 mm 0.00 in0.0 mm
08:26 AM 40.1°F4.5°C 36.8°F2.7°C 88% 1.4 mph WNW2.3 kmh WNW 3.0 mph4.8 kmh 29.95 in1014.2 mb 0.00 in0.0 mm 0.00 in0.0 mm 0.00 in0.0 mm
08:31 AM 40.2°F4.6°C 36.9°F2.7°C 88% 1.0 mph W1.6 kmh W 3.0 mph4.8 kmh 29.95 in1014.2 mb 0.00 in0.0 mm 0.00 in0.0 mm 0.00 in0.0 mm
08:36 AM 40.1°F4.5°C 36.8°F2.7°C 88% 1.0 mph W1.6 kmh W 3.0 mph4.8 kmh 29.95 in1014.2 mb 0.00 in0.0 mm 0.00 in0.0 mm 0.00 in0.0 mm
08:41 AM 40.0°F4.4°C 36.7°F2.6°C 88% 1.4 mph W2.3 kmh W 2.0 mph3.2 kmh 29.95 in1014.2 mb 0.00 in0.0 mm 0.00 in0.0 mm 0.00 in0.0 mm
08:46 AM 40.0°F4.4°C 37.0°F2.8°C 89% 1.0 mph W1.6 kmh W 2.0 mph3.2 kmh 29.95 in1014.2 mb 0.00 in0.0 mm 0.00 in0.0 mm 0.00 in0.0 mm
08:51 AM 40.0°F4.4°C 37.0°F2.8°C 89% 1.4 mph WSW2.3 kmh WSW 3.0 mph4.8 kmh 29.95 in1014.2 mb 0.00 in0.0 mm 0.00 in0.0 mm 0.00 in0.0 mm
08:56 AM 39.8°F4.3°C 36.8°F2.7°C 89% 1.0 mph WSW1.6 kmh WSW 3.0 mph4.8 kmh 29.95 in1014.2 mb 0.00 in0.0 mm 0.00 in0.0 mm 0.00 in0.0 mm
09:01 AM 40.0°F4.4°C 37.3°F2.9°C 90% 1.1 mph WSW1.8 kmh WSW 3.0 mph4.8 kmh 29.95 in1014.2 mb 0.00 in0.0 mm 0.00 in0.0 mm 0.00 in0.0 mm
09:06 AM 40.5°F4.7°C 37.5°F3.1°C 89% 1.6 mph W2.6 kmh W 4.0 mph6.4 kmh 29.96 in1014.6 mb 0.00 in0.0 mm 0.00 in0.0 mm 0.00 in0.0 mm
09:11 AM 41.3°F5.2°C 38.0°F3.3°C 88% 2.4 mph W3.9 kmh W 5.0 mph8.0 kmh 29.96 in1014.6 mb 0.00 in0.0 mm 0.00 in0.0 mm 0.00 in0.0 mm
09:16 AM 41.9°F5.5°C 38.3°F3.5°C 87% 1.4 mph W2.3 kmh W 7.0 mph11.3 kmh 29.96 in1014.6 mb 0.00 in0.0 mm 0.00 in0.0 mm 0.00 in0.0 mm
09:21 AM 42.4°F5.8°C 38.2°F3.4°C 85% 2.7 mph W4.3 kmh W 7.0 mph11.3 kmh 29.97 in1014.9 mb 0.00 in0.0 mm 0.00 in0.0 mm 0.00 in0.0 mm
09:26 AM 42.8°F6.0°C 38.6°F3.7°C 85% 2.6 mph W4.2 kmh W 7.0 mph11.3 kmh 29.97 in1014.9 mb 0.00 in0.0 mm 0.00 in0.0 mm 0.00 in0.0 mm
09:31 AM 43.3°F6.3°C 38.8°F3.8°C 84% 2.8 mph W4.5 kmh W 7.0 mph11.3 kmh 29.97 in1014.9 mb 0.00 in0.0 mm 0.00 in0.0 mm 0.00 in0.0 mm
09:36 AM 43.6°F6.4°C 39.1°F3.9°C 84% 2.9 mph WNW4.7 kmh WNW 6.0 mph9.7 kmh 29.97 in1014.9 mb 0.00 in0.0 mm 0.00 in0.0 mm 0.00 in0.0 mm
09:41 AM 44.0°F6.7°C 39.5°F4.2°C 84% 2.3 mph W3.7 kmh W 6.0 mph9.7 kmh 29.97 in1014.9 mb 0.00 in0.0 mm 0.00 in0.0 mm 0.00 in0.0 mm
09:46 AM 44.6°F7.0°C 39.8°F4.3°C 83% 3.2 mph WNW5.1 kmh WNW 6.0 mph9.7 kmh 29.97 in1014.9 mb 0.00 in0.0 mm 0.00 in0.0 mm 0.00 in0.0 mm
09:51 AM 45.3°F7.4°C 40.1°F4.5°C 82% 2.2 mph W3.5 kmh W 6.0 mph9.7 kmh 29.97 in1014.9 mb 0.00 in0.0 mm 0.00 in0.0 mm 0.00 in0.0 mm
09:56 AM 45.7°F7.6°C 40.5°F4.7°C 82% 1.0 mph WNW1.6 kmh WNW 6.0 mph9.7 kmh 29.97 in1014.9 mb 0.00 in0.0 mm 0.00 in0.0 mm 0.00 in0.0 mm
10:01 AM 46.1°F7.8°C 40.3°F4.6°C 80% 2.2 mph WNW3.5 kmh WNW 6.0 mph9.7 kmh 29.97 in1014.9 mb 0.00 in0.0 mm 0.00 in0.0 mm 0.00 in0.0 mm
10:06 AM 46.5°F8.1°C 41.0°F5.0°C 81% 2.6 mph WNW4.2 kmh WNW 5.0 mph8.0 kmh 29.97 in1014.9 mb 0.00 in0.0 mm 0.00 in0.0 mm 0.00 in0.0 mm
10:11 AM 47.0°F8.3°C 41.1°F5.1°C 80% 1.1 mph WNW1.8 kmh WNW 5.0 mph8.0 kmh 29.97 in1014.9 mb 0.00 in0.0 mm 0.00 in0.0 mm 0.00 in0.0 mm
10:16 AM 47.6°F8.7°C 41.8°F5.4°C 80% 2.1 mph WNW3.4 kmh WNW 5.0 mph8.0 kmh 29.97 in1014.9 mb 0.00 in0.0 mm 0.00 in0.0 mm 0.00 in0.0 mm
10:21 AM 47.8°F8.8°C 41.6°F5.3°C 79% 2.3 mph WNW3.7 kmh WNW 5.0 mph8.0 kmh 29.97 in1014.9 mb 0.00 in0.0 mm 0.00 in0.0 mm 0.00 in0.0 mm
10:26 AM 48.3°F9.1°C 42.1°F5.6°C 79% 2.0 mph W3.2 kmh W 4.0 mph6.4 kmh 29.97 in1014.9 mb 0.00 in0.0 mm 0.00 in0.0 mm 0.00 in0.0 mm
10:31 AM 48.6°F9.2°C 42.4°F5.8°C 79% 1.1 mph NW1.8 kmh NW 4.0 mph6.4 kmh 29.97 in1014.9 mb 0.00 in0.0 mm 0.00 in0.0 mm 0.00 in0.0 mm
10:36 AM 48.7°F9.3°C 41.9°F5.5°C 77% 3.3 mph W5.3 kmh W 5.0 mph8.0 kmh 29.97 in1014.9 mb 0.00 in0.0 mm 0.00 in0.0 mm 0.00 in0.0 mm
10:41 AM 49.1°F9.5°C 42.6°F5.9°C 78% 1.2 mph NW1.9 kmh NW 5.0 mph8.0 kmh 29.97 in1014.9 mb 0.00 in0.0 mm 0.00 in0.0 mm 0.00 in0.0 mm
10:46 AM 49.3°F9.6°C 42.5°F5.8°C 77% 2.1 mph WSW3.4 kmh WSW 5.0 mph8.0 kmh 29.97 in1014.9 mb 0.00 in0.0 mm 0.00 in0.0 mm 0.00 in0.0 mm
10:51 AM 49.5°F9.7°C 43.0°F6.1°C 78% 1.2 mph WNW1.9 kmh WNW 5.0 mph8.0 kmh 29.97 in1014.9 mb 0.00 in0.0 mm 0.00 in0.0 mm 0.00 in0.0 mm
10:56 AM 50.1°F10.1°C 43.2°F6.2°C 77% 1.5 mph SW2.4 kmh SW 4.0 mph6.4 kmh 29.98 in1015.2 mb 0.00 in0.0 mm 0.00 in0.0 mm 0.00 in0.0 mm
11:01 AM 50.4°F10.2°C 43.2°F6.2°C 76% 3.2 mph WSW5.1 kmh WSW 6.0 mph9.7 kmh 29.98 in1015.2 mb 0.00 in0.0 mm 0.00 in0.0 mm 0.00 in0.0 mm
11:06 AM 50.9°F10.5°C 43.7°F6.5°C 76% 3.0 mph SW4.8 kmh SW 6.0 mph9.7 kmh 29.98 in1015.2 mb 0.00 in0.0 mm 0.00 in0.0 mm 0.00 in0.0 mm
11:11 AM 51.3°F10.7°C 44.1°F6.7°C 76% 1.6 mph NW2.6 kmh NW 6.0 mph9.7 kmh 29.97 in1014.9 mb 0.00 in0.0 mm 0.00 in0.0 mm 0.00 in0.0 mm
11:16 AM 51.7°F10.9°C 43.8°F6.6°C 74% 1.7 mph WSW2.7 kmh WSW 6.0 mph9.7 kmh 29.97 in1014.9 mb 0.00 in0.0 mm 0.00 in0.0 mm 0.00 in0.0 mm
11:21 AM 52.0°F11.1°C 44.1°F6.7°C 74% 1.9 mph SW3.1 kmh SW 5.0 mph8.0 kmh 29.97 in1014.9 mb 0.00 in0.0 mm 0.00 in0.0 mm 0.00 in0.0 mm
11:26 AM 52.5°F11.4°C 43.7°F6.5°C 72% 1.8 mph WSW2.9 kmh WSW 5.0 mph8.0 kmh 29.96 in1014.6 mb 0.00 in0.0 mm 0.00 in0.0 mm 0.00 in0.0 mm
11:31 AM 52.8°F11.6°C 43.3°F6.3°C 70% 3.8 mph SW6.1 kmh SW 6.0 mph9.7 kmh 29.96 in1014.6 mb 0.00 in0.0 mm 0.00 in0.0 mm 0.00 in0.0 mm
11:36 AM 52.9°F11.6°C 43.0°F6.1°C 69% 3.2 mph SW5.1 kmh SW 6.0 mph9.7 kmh 29.96 in1014.6 mb 0.00 in0.0 mm 0.00 in0.0 mm 0.00 in0.0 mm
11:41 AM 52.9°F11.6°C 43.1°F6.2°C 69% 3.0 mph WSW4.8 kmh WSW 6.0 mph9.7 kmh 29.96 in1014.6 mb 0.00 in0.0 mm 0.00 in0.0 mm 0.00 in0.0 mm
11:46 AM 53.1°F11.7°C 41.4°F5.2°C 64% 2.8 mph W4.5 kmh W 6.0 mph9.7 kmh 29.96 in1014.6 mb 0.00 in0.0 mm 0.00 in0.0 mm 0.00 in0.0 mm
11:51 AM 53.5°F11.9°C 41.7°F5.4°C 64% 2.4 mph W3.9 kmh W 6.0 mph9.7 kmh 29.96 in1014.6 mb 0.00 in0.0 mm 0.00 in0.0 mm 0.00 in0.0 mm
11:56 AM 53.4°F11.9°C 41.1°F5.1°C 63% 2.6 mph W4.2 kmh W 6.0 mph9.7 kmh 29.96 in1014.6 mb 0.00 in0.0 mm 0.00 in0.0 mm 0.00 in0.0 mm
12:01 PM 53.3°F11.8°C 41.8°F5.4°C 65% 1.8 mph W2.9 kmh W 6.0 mph9.7 kmh 29.95 in1014.2 mb 0.00 in0.0 mm 0.00 in0.0 mm 0.00 in0.0 mm
12:06 PM 53.7°F12.1°C 42.7°F5.9°C 66% 2.2 mph SW3.5 kmh SW 5.0 mph8.0 kmh 29.95 in1014.2 mb 0.00 in0.0 mm 0.00 in0.0 mm 0.00 in0.0 mm
12:11 PM 53.9°F12.2°C 42.1°F5.6°C 64% 2.1 mph WSW3.4 kmh WSW 5.0 mph8.0 kmh 29.95 in1014.2 mb 0.00 in0.0 mm 0.00 in0.0 mm 0.00 in0.0 mm
12:16 PM 54.1°F12.3°C 42.7°F5.9°C 65% 1.5 mph SSW2.4 kmh SSW 5.0 mph8.0 kmh 29.95 in1014.2 mb 0.00 in0.0 mm 0.00 in0.0 mm 0.00 in0.0 mm
12:21 PM 54.4°F12.4°C 42.2°F5.7°C 63% 4.2 mph SW6.8 kmh SW 7.0 mph11.3 kmh 29.95 in1014.2 mb 0.00 in0.0 mm 0.00 in0.0 mm 0.00 in0.0 mm
12:26 PM 54.8°F12.7°C 43.3°F6.3°C 65% 1.4 mph W2.3 kmh W 7.0 mph11.3 kmh 29.95 in1014.2 mb 0.00 in0.0 mm 0.00 in0.0 mm 0.00 in0.0 mm
12:31 PM 54.7°F12.6°C 41.6°F5.3°C 61% 2.5 mph WSW4.0 kmh WSW 8.0 mph12.9 kmh 29.94 in1013.9 mb 0.00 in0.0 mm 0.00 in0.0 mm 0.00 in0.0 mm
12:36 PM 54.8°F12.7°C 42.1°F5.6°C 62% 2.5 mph WSW4.0 kmh WSW 8.0 mph12.9 kmh 29.94 in1013.9 mb 0.00 in0.0 mm 0.00 in0.0 mm 0.00 in0.0 mm
12:41 PM 54.8°F12.7°C 42.1°F5.6°C 62% 2.5 mph WSW4.0 kmh WSW 8.0 mph12.9 kmh 29.94 in1013.9 mb 0.00 in0.0 mm 0.00 in0.0 mm 0.00 in0.0 mm
12:46 PM 55.4°F13.0°C 43.1°F6.2°C 63% 1.6 mph WSW2.6 kmh WSW 8.0 mph12.9 kmh 29.94 in1013.9 mb 0.00 in0.0 mm 0.00 in0.0 mm 0.00 in0.0 mm
12:51 PM 55.0°F12.8°C 42.2°F5.7°C 62% 3.2 mph SW5.1 kmh SW 8.0 mph12.9 kmh 29.93 in1013.5 mb 0.00 in0.0 mm 0.00 in0.0 mm 0.00 in0.0 mm
12:56 PM 54.7°F12.6°C 42.3°F5.7°C 63% 3.4 mph SW5.5 kmh SW 8.0 mph12.9 kmh 29.93 in1013.5 mb 0.00 in0.0 mm 0.00 in0.0 mm 0.00 in0.0 mm
01:01 PM 54.8°F12.7°C 43.0°F6.1°C 64% 1.7 mph SW2.7 kmh SW 8.0 mph12.9 kmh 29.93 in1013.5 mb 0.00 in0.0 mm 0.00 in0.0 mm 0.00 in0.0 mm
01:06 PM 55.0°F12.8°C 43.2°F6.2°C 64% 2.0 mph WSW3.2 kmh WSW 8.0 mph12.9 kmh 29.93 in1013.5 mb 0.00 in0.0 mm 0.00 in0.0 mm 0.00 in0.0 mm
01:11 PM 55.3°F12.9°C 43.0°F6.1°C 63% 3.3 mph SW5.3 kmh SW 8.0 mph12.9 kmh 29.93 in1013.5 mb 0.00 in0.0 mm 0.00 in0.0 mm 0.00 in0.0 mm
01:16 PM 55.6°F13.1°C 42.9°F6.1°C 62% 1.7 mph SW2.7 kmh SW 6.0 mph9.7 kmh 29.92 in1013.2 mb 0.00 in0.0 mm 0.00 in0.0 mm 0.00 in0.0 mm
01:21 PM 55.5°F13.1°C 42.4°F5.8°C 61% 3.0 mph SW4.8 kmh SW 7.0 mph11.3 kmh 29.93 in1013.5 mb 0.00 in0.0 mm 0.00 in0.0 mm 0.00 in0.0 mm
01:26 PM 55.2°F12.9°C 42.0°F5.6°C 61% 2.5 mph WSW4.0 kmh WSW 7.0 mph11.3 kmh 29.92 in1013.2 mb 0.00 in0.0 mm 0.00 in0.0 mm 0.00 in0.0 mm
01:31 PM 55.4°F13.0°C 42.7°F5.9°C 62% 1.0 mph SW1.6 kmh SW 7.0 mph11.3 kmh 29.92 in1013.2 mb 0.00 in0.0 mm 0.00 in0.0 mm 0.00 in0.0 mm
01:36 PM 56.3°F13.5°C 43.1°F6.2°C 61% 1.2 mph WSW1.9 kmh WSW 7.0 mph11.3 kmh 29.92 in1013.2 mb 0.00 in0.0 mm 0.00 in0.0 mm 0.00 in0.0 mm
01:41 PM 56.7°F13.7°C 42.6°F5.9°C 59% 1.7 mph WSW2.7 kmh WSW 7.0 mph11.3 kmh 29.92 in1013.2 mb 0.00 in0.0 mm 0.00 in0.0 mm 0.00 in0.0 mm
01:46 PM 57.2°F14.0°C 42.7°F5.9°C 58% 2.9 mph SW4.7 kmh SW 6.0 mph9.7 kmh 29.92 in1013.2 mb 0.00 in0.0 mm 0.00 in0.0 mm 0.00 in0.0 mm
01:51 PM 57.5°F14.2°C 42.5°F5.8°C 57% 1.0 mph SW1.6 kmh SW 6.0 mph9.7 kmh 29.91 in1012.9 mb 0.00 in0.0 mm 0.00 in0.0 mm 0.00 in0.0 mm
01:56 PM 57.7°F14.3°C 42.2°F5.7°C 56% 1.9 mph W3.1 kmh W 6.0 mph9.7 kmh 29.92 in1013.2 mb 0.00 in0.0 mm 0.00 in0.0 mm 0.00 in0.0 mm
02:01 PM 57.7°F14.3°C 42.1°F5.6°C 56% 2.4 mph SW3.9 kmh SW 6.0 mph9.7 kmh 29.91 in1012.9 mb 0.00 in0.0 mm 0.00 in0.0 mm 0.00 in0.0 mm
02:06 PM 57.7°F14.3°C 42.2°F5.7°C 56% 2.0 mph WSW3.2 kmh WSW 7.0 mph11.3 kmh 29.91 in1012.9 mb 0.00 in0.0 mm 0.00 in0.0 mm 0.00 in0.0 mm
02:11 PM 58.2°F14.6°C 42.7°F5.9°C 56% 1.5 mph WSW2.4 kmh WSW 7.0 mph11.3 kmh 29.91 in1012.9 mb 0.00 in0.0 mm 0.00 in0.0 mm 0.00 in0.0 mm
02:16 PM 58.6°F14.8°C 42.6°F5.9°C 55% 1.5 mph SW2.4 kmh SW 7.0 mph11.3 kmh 29.91 in1012.9 mb 0.00 in0.0 mm 0.00 in0.0 mm 0.00 in0.0 mm
02:21 PM 58.4°F14.7°C 41.9°F5.5°C 54% 2.5 mph WSW4.0 kmh WSW 7.0 mph11.3 kmh 29.91 in1012.9 mb 0.00 in0.0 mm 0.00 in0.0 mm 0.00 in0.0 mm
02:26 PM 58.4°F14.7°C 42.8°F6.0°C 56% 1.6 mph WSW2.6 kmh WSW 5.0 mph8.0 kmh 29.91 in1012.9 mb 0.00 in0.0 mm 0.00 in0.0 mm 0.00 in0.0 mm
02:31 PM 58.5°F14.7°C 42.4°F5.8°C 55% 2.5 mph SW4.0 kmh SW 5.0 mph8.0 kmh 29.91 in1012.9 mb 0.00 in0.0 mm 0.00 in0.0 mm 0.00 in0.0 mm
02:36 PM 58.9°F14.9°C 43.8°F6.6°C 57% 1.5 mph SSW2.4 kmh SSW 5.0 mph8.0 kmh 29.91 in1012.9 mb 0.00 in0.0 mm 0.00 in0.0 mm 0.00 in0.0 mm
02:41 PM 59.2°F15.1°C 43.6°F6.4°C 56% 2.5 mph SW4.0 kmh SW 5.0 mph8.0 kmh 29.91 in1012.9 mb 0.00 in0.0 mm 0.00 in0.0 mm 0.00 in0.0 mm
02:46 PM 58.6°F14.8°C 43.0°F6.1°C 56% 2.9 mph WSW4.7 kmh WSW 6.0 mph9.7 kmh 29.91 in1012.9 mb 0.00 in0.0 mm 0.00 in0.0 mm 0.00 in0.0 mm
02:51 PM 58.5°F14.7°C 43.9°F6.6°C 58% 2.3 mph SW3.7 kmh SW 6.0 mph9.7 kmh 29.91 in1012.9 mb 0.00 in0.0 mm 0.00 in0.0 mm 0.00 in0.0 mm
02:56 PM 58.7°F14.8°C 44.1°F6.7°C 58% 3.3 mph SSW5.3 kmh SSW 7.0 mph11.3 kmh 29.91 in1012.9 mb 0.00 in0.0 mm 0.00 in0.0 mm 0.00 in0.0 mm
03:01 PM 59.0°F15.0°C 44.8°F7.1°C 59% 2.5 mph SW4.0 kmh SW 7.0 mph11.3 kmh 29.91 in1012.9 mb 0.00 in0.0 mm 0.00 in0.0 mm 0.00 in0.0 mm
03:06 PM 58.7°F14.8°C 44.0°F6.7°C 58% 2.8 mph SW4.5 kmh SW 7.0 mph11.3 kmh 29.91 in1012.9 mb 0.00 in0.0 mm 0.00 in0.0 mm 0.00 in0.0 mm
03:11 PM 58.8°F14.9°C 44.0°F6.7°C 58% 3.4 mph SW5.5 kmh SW 7.0 mph11.3 kmh 29.92 in1013.2 mb 0.00 in0.0 mm 0.00 in0.0 mm 0.00 in0.0 mm
03:16 PM 59.2°F15.1°C 45.0°F7.2°C 59% 1.0 mph W1.6 kmh W 6.0 mph9.7 kmh 29.92 in1013.2 mb 0.00 in0.0 mm 0.00 in0.0 mm 0.00 in0.0 mm
03:21 PM 59.8°F15.4°C 44.2°F6.8°C 56% 1.5 mph SSW2.4 kmh SSW 6.0 mph9.7 kmh 29.91 in1012.9 mb 0.00 in0.0 mm 0.00 in0.0 mm 0.00 in0.0 mm
03:26 PM 59.8°F15.4°C 44.2°F6.8°C 56% 1.2 mph SW1.9 kmh SW 6.0 mph9.7 kmh 29.91 in1012.9 mb 0.00 in0.0 mm 0.00 in0.0 mm 0.00 in0.0 mm
03:31 PM 59.7°F15.4°C 44.1°F6.7°C 56% 1.2 mph SE1.9 kmh SE 4.0 mph6.4 kmh 29.91 in1012.9 mb 0.00 in0.0 mm 0.00 in0.0 mm 0.00 in0.0 mm
03:36 PM 60.0°F15.6°C 44.8°F7.1°C 57% 1.3 mph SW2.1 kmh SW 4.0 mph6.4 kmh 29.91 in1012.9 mb 0.00 in0.0 mm 0.00 in0.0 mm 0.00 in0.0 mm
03:41 PM 60.4°F15.8°C 43.7°F6.5°C 54% 1.2 mph SW1.9 kmh SW 4.0 mph6.4 kmh 29.91 in1012.9 mb 0.00 in0.0 mm 0.00 in0.0 mm 0.00 in0.0 mm
03:46 PM 60.4°F15.8°C 43.2°F6.2°C 53% 3.2 mph WSW5.1 kmh WSW 6.0 mph9.7 kmh 29.91 in1012.9 mb 0.00 in0.0 mm 0.00 in0.0 mm 0.00 in0.0 mm
03:51 PM 59.6°F15.3°C 43.0°F6.1°C 54% 1.6 mph WSW2.6 kmh WSW 6.0 mph9.7 kmh 29.91 in1012.9 mb 0.00 in0.0 mm 0.00 in0.0 mm 0.00 in0.0 mm
03:56 PM 59.3°F15.2°C 43.2°F6.2°C 55% 3.0 mph WSW4.8 kmh WSW 6.0 mph9.7 kmh 29.91 in1012.9 mb 0.00 in0.0 mm 0.00 in0.0 mm 0.00 in0.0 mm
04:01 PM 59.4°F15.2°C 43.3°F6.3°C 55% 2.3 mph WSW3.7 kmh WSW 6.0 mph9.7 kmh 29.91 in1012.9 mb 0.00 in0.0 mm 0.00 in0.0 mm 0.00 in0.0 mm
04:06 PM 60.0°F15.6°C 44.3°F6.8°C 56% Calm Calm 5.0 mph8.0 kmh 29.91 in1012.9 mb 0.00 in0.0 mm 0.00 in0.0 mm 0.00 in0.0 mm
04:11 PM 60.3°F15.7°C 43.2°F6.2°C 53% 1.9 mph SW3.1 kmh SW 5.0 mph8.0 kmh 29.91 in1012.9 mb 0.00 in0.0 mm 0.00 in0.0 mm 0.00 in0.0 mm
04:16 PM 60.4°F15.8°C 43.7°F6.5°C 54% 1.5 mph SW2.4 kmh SW 4.0 mph6.4 kmh 29.91 in1012.9 mb 0.00 in0.0 mm 0.00 in0.0 mm 0.00 in0.0 mm
04:21 PM 60.3°F15.7°C 44.1°F6.7°C 55% 2.1 mph SW3.4 kmh SW 4.0 mph6.4 kmh 29.91 in1012.9 mb 0.00 in0.0 mm 0.00 in0.0 mm 0.00 in0.0 mm
04:26 PM 60.2°F15.7°C 44.0°F6.7°C 55% 1.2 mph SE1.9 kmh SE 4.0 mph6.4 kmh 29.91 in1012.9 mb 0.00 in0.0 mm 0.00 in0.0 mm 0.00 in0.0 mm
04:31 PM 60.5°F15.8°C 44.2°F6.8°C 55% Calm Calm 4.0 mph6.4 kmh 29.91 in1012.9 mb 0.00 in0.0 mm 0.00 in0.0 mm 0.00 in0.0 mm
04:36 PM 60.5°F15.8°C 44.3°F6.8°C 55% Calm Calm 4.0 mph6.4 kmh 29.92 in1013.2 mb 0.00 in0.0 mm 0.00 in0.0 mm 0.00 in0.0 mm
04:41 PM 60.1°F15.6°C 44.0°F6.7°C 55% 2.1 mph SW3.4 kmh SW 4.0 mph6.4 kmh 29.92 in1013.2 mb 0.00 in0.0 mm 0.00 in0.0 mm 0.00 in0.0 mm
04:46 PM 59.6°F15.3°C 44.0°F6.7°C 56% 2.5 mph SW4.0 kmh SW 6.0 mph9.7 kmh 29.92 in1013.2 mb 0.00 in0.0 mm 0.00 in0.0 mm 0.00 in0.0 mm
04:51 PM 59.4°F15.2°C 44.2°F6.8°C 57% Calm Calm 6.0 mph9.7 kmh 29.92 in1013.2 mb 0.00 in0.0 mm 0.00 in0.0 mm 0.00 in0.0 mm
04:56 PM 59.3°F15.2°C 44.1°F6.7°C 57% 1.0 mph SW1.6 kmh SW 6.0 mph9.7 kmh 29.92 in1013.2 mb 0.00 in0.0 mm 0.00 in0.0 mm 0.00 in0.0 mm
05:01 PM 59.2°F15.1°C 44.0°F6.7°C 57% 1.2 mph SSE1.9 kmh SSE 6.0 mph9.7 kmh 29.92 in1013.2 mb 0.00 in0.0 mm 0.00 in0.0 mm 0.00 in0.0 mm
05:06 PM 58.9°F14.9°C 44.1°F6.7°C 58% 1.3 mph SW2.1 kmh SW 4.0 mph6.4 kmh 29.92 in1013.2 mb 0.00 in0.0 mm 0.00 in0.0 mm 0.00 in0.0 mm
05:11 PM 58.5°F14.7°C 43.9°F6.6°C 58% Calm Calm 3.0 mph4.8 kmh 29.92 in1013.2 mb 0.00 in0.0 mm 0.00 in0.0 mm 0.00 in0.0 mm
05:16 PM 57.9°F14.4°C 43.8°F6.6°C 59% Calm Calm 2.0 mph3.2 kmh 29.93 in1013.5 mb 0.00 in0.0 mm 0.00 in0.0 mm 0.00 in0.0 mm
05:21 PM 57.2°F14.0°C 43.6°F6.4°C 60% 1.0 mph SW1.6 kmh SW 2.0 mph3.2 kmh 29.92 in1013.2 mb 0.00 in0.0 mm 0.00 in0.0 mm 0.00 in0.0 mm
05:26 PM 56.5°F13.6°C 43.2°F6.2°C 61% Calm Calm 1.0 mph1.6 kmh 29.93 in1013.5 mb 0.00 in0.0 mm 0.00 in0.0 mm 0.00 in0.0 mm
05:31 PM 55.8°F13.2°C 43.0°F6.1°C 62% Calm Calm 1.0 mph1.6 kmh 29.93 in1013.5 mb 0.00 in0.0 mm 0.00 in0.0 mm 0.00 in0.0 mm
05:36 PM 55.0°F12.8°C 43.2°F6.2°C 64% Calm Calm 1.0 mph1.6 kmh 29.93 in1013.5 mb 0.00 in0.0 mm 0.00 in0.0 mm 0.00 in0.0 mm
05:41 PM 54.4°F12.4°C 43.0°F6.1°C 65% Calm Calm -- 29.93 in1013.5 mb 0.00 in0.0 mm 0.00 in0.0 mm 0.00 in0.0 mm
05:46 PM 53.8°F12.1°C 42.8°F6.0°C 66% Calm Calm -- 29.93 in1013.5 mb 0.00 in0.0 mm 0.00 in0.0 mm 0.00 in0.0 mm
05:51 PM 53.2°F11.8°C 42.6°F5.9°C 67% Calm Calm -- 29.93 in1013.5 mb 0.00 in0.0 mm 0.00 in0.0 mm 0.00 in0.0 mm
05:56 PM 52.8°F11.6°C 42.6°F5.9°C 68% Calm Calm -- 29.93 in1013.5 mb 0.00 in0.0 mm 0.00 in0.0 mm 0.00 in0.0 mm
06:01 PM 52.8°F11.6°C 42.5°F5.8°C 68% Calm Calm 1.0 mph1.6 kmh 29.93 in1013.5 mb 0.00 in0.0 mm 0.00 in0.0 mm 0.00 in0.0 mm
06:06 PM 52.9°F11.6°C 42.2°F5.7°C 67% 1.0 mph SW1.6 kmh SW 1.0 mph1.6 kmh 29.94 in1013.9 mb 0.00 in0.0 mm 0.00 in0.0 mm 0.00 in0.0 mm
06:11 PM 53.2°F11.8°C 42.1°F5.6°C 66% Calm Calm 1.0 mph1.6 kmh 29.94 in1013.9 mb 0.00 in0.0 mm 0.00 in0.0 mm 0.00 in0.0 mm
06:16 PM 53.2°F11.8°C 41.7°F5.4°C 65% 1.0 mph SW1.6 kmh SW 1.0 mph1.6 kmh 29.94 in1013.9 mb 0.00 in0.0 mm 0.00 in0.0 mm 0.00 in0.0 mm
06:21 PM 53.3°F11.8°C 41.8°F5.4°C 65% 1.0 mph SW1.6 kmh SW 1.0 mph1.6 kmh 29.94 in1013.9 mb 0.00 in0.0 mm 0.00 in0.0 mm 0.00 in0.0 mm
06:26 PM 53.2°F11.8°C 41.7°F5.4°C 65% 1.1 mph SW1.8 kmh SW 2.0 mph3.2 kmh 29.94 in1013.9 mb 0.00 in0.0 mm 0.00 in0.0 mm 0.00 in0.0 mm
06:31 PM 53.1°F11.7°C 42.0°F5.6°C 66% 1.0 mph SW1.6 kmh SW 2.0 mph3.2 kmh 29.94 in1013.9 mb 0.00 in0.0 mm 0.00 in0.0 mm 0.00 in0.0 mm
06:36 PM 53.0°F11.7°C 42.1°F5.6°C 66% 1.0 mph SW1.6 kmh SW 2.0 mph3.2 kmh 29.94 in1013.9 mb 0.00 in0.0 mm 0.00 in0.0 mm 0.00 in0.0 mm
06:41 PM 53.0°F11.7°C 42.1°F5.6°C 66% 1.0 mph SW1.6 kmh SW 2.0 mph3.2 kmh 29.94 in1013.9 mb 0.00 in0.0 mm 0.00 in0.0 mm 0.00 in0.0 mm
06:46 PM 52.8°F11.6°C 41.9°F5.5°C 66% Calm Calm 2.0 mph3.2 kmh 29.94 in1013.9 mb 0.00 in0.0 mm 0.00 in0.0 mm 0.00 in0.0 mm
06:51 PM 52.5°F11.4°C 42.0°F5.6°C 67% Calm Calm 2.0 mph3.2 kmh 29.94 in1013.9 mb 0.00 in0.0 mm 0.00 in0.0 mm 0.00 in0.0 mm
06:56 PM 52.2°F11.2°C 42.1°F5.6°C 68% Calm Calm 2.0 mph3.2 kmh 29.95 in1014.2 mb 0.00 in0.0 mm 0.00 in0.0 mm 0.00 in0.0 mm
07:01 PM 51.9°F11.1°C 42.2°F5.7°C 69% Calm Calm 1.0 mph1.6 kmh 29.95 in1014.2 mb 0.00 in0.0 mm 0.00 in0.0 mm 0.00 in0.0 mm
07:06 PM 51.6°F10.9°C 42.2°F5.7°C 70% 1.0 mph SW1.6 kmh SW 1.0 mph1.6 kmh 29.95 in1014.2 mb 0.00 in0.0 mm 0.00 in0.0 mm 0.00 in0.0 mm
07:11 PM 51.4°F10.8°C 42.4°F5.8°C 71% 1.0 mph SW1.6 kmh SW 1.0 mph1.6 kmh 29.95 in1014.2 mb 0.00 in0.0 mm 0.00 in0.0 mm 0.00 in0.0 mm
07:16 PM 51.3°F10.7°C 42.6°F5.9°C 72% 1.2 mph SW1.9 kmh SW 2.0 mph3.2 kmh 29.96 in1014.6 mb 0.00 in0.0 mm 0.00 in0.0 mm 0.00 in0.0 mm
07:21 PM 51.1°F10.6°C 42.8°F6.0°C 73% Calm Calm 2.0 mph3.2 kmh 29.96 in1014.6 mb 0.00 in0.0 mm 0.00 in0.0 mm 0.00 in0.0 mm
07:27 PM 50.8°F10.4°C 42.5°F5.8°C 73% Calm Calm 2.0 mph3.2 kmh 29.96 in1014.6 mb 0.00 in0.0 mm 0.00 in0.0 mm 0.00 in0.0 mm
07:31 PM 50.6°F10.3°C 42.4°F5.8°C 73% Calm Calm 2.0 mph3.2 kmh 29.95 in1014.2 mb 0.00 in0.0 mm 0.00 in0.0 mm 0.00 in0.0 mm
07:37 PM 50.6°F10.3°C 42.0°F5.6°C 72% Calm Calm -- 29.96 in1014.6 mb 0.00 in0.0 mm 0.00 in0.0 mm 0.00 in0.0 mm
07:41 PM 50.6°F10.3°C 41.9°F5.5°C 72% Calm Calm 1.0 mph1.6 kmh 29.96 in1014.6 mb 0.00 in0.0 mm 0.00 in0.0 mm 0.00 in0.0 mm
07:47 PM 50.7°F10.4°C 42.1°F5.6°C 72% 1.0 mph SW1.6 kmh SW 1.0 mph1.6 kmh 29.97 in1014.9 mb 0.00 in0.0 mm 0.00 in0.0 mm 0.00 in0.0 mm
07:52 PM 50.9°F10.5°C 41.9°F5.5°C 71% 1.5 mph SW2.4 kmh SW 2.0 mph3.2 kmh 29.97 in1014.9 mb 0.00 in0.0 mm 0.00 in0.0 mm 0.00 in0.0 mm
07:57 PM 51.2°F10.7°C 41.9°F5.5°C 70% 1.2 mph SW1.9 kmh SW 4.0 mph6.4 kmh 29.97 in1014.9 mb 0.00 in0.0 mm 0.00 in0.0 mm 0.00 in0.0 mm
08:02 PM 51.3°F10.7°C 42.0°F5.6°C 70% Calm Calm 4.0 mph6.4 kmh 29.97 in1014.9 mb 0.00 in0.0 mm 0.00 in0.0 mm 0.00 in0.0 mm
08:07 PM 51.0°F10.6°C 41.7°F5.4°C 70% Calm Calm 4.0 mph6.4 kmh 29.97 in1014.9 mb 0.00 in0.0 mm 0.00 in0.0 mm 0.00 in0.0 mm
08:12 PM 51.2°F10.7°C 41.9°F5.5°C 70% 1.3 mph SW2.1 kmh SW 4.0 mph6.4 kmh 29.97 in1014.9 mb 0.00 in0.0 mm 0.00 in0.0 mm 0.00 in0.0 mm
08:17 PM 51.4°F10.8°C 41.9°F5.5°C 70% 1.5 mph SW2.4 kmh SW 3.0 mph4.8 kmh 29.97 in1014.9 mb 0.00 in0.0 mm 0.00 in0.0 mm 0.00 in0.0 mm
08:22 PM 51.3°F10.7°C 41.8°F5.4°C 70% 1.0 mph SW1.6 kmh SW 4.0 mph6.4 kmh 29.97 in1014.9 mb 0.00 in0.0 mm 0.00 in0.0 mm 0.00 in0.0 mm
08:26 PM 51.0°F10.6°C 41.7°F5.4°C 70% 1.0 mph SW1.6 kmh SW 4.0 mph6.4 kmh 29.97 in1014.9 mb 0.00 in0.0 mm 0.00 in0.0 mm 0.00 in0.0 mm
08:32 PM 50.6°F10.3°C 41.6°F5.3°C 71% 1.0 mph SW1.6 kmh SW 4.0 mph6.4 kmh 29.97 in1014.9 mb 0.00 in0.0 mm 0.00 in0.0 mm 0.00 in0.0 mm
08:37 PM 50.4°F10.2°C 41.5°F5.3°C 71% Calm Calm 3.0 mph4.8 kmh 29.97 in1014.9 mb 0.00 in0.0 mm 0.00 in0.0 mm 0.00 in0.0 mm
08:42 PM 50.3°F10.2°C 41.7°F5.4°C 72% 1.5 mph SW2.4 kmh SW 2.0 mph3.2 kmh 29.97 in1014.9 mb 0.00 in0.0 mm 0.00 in0.0 mm 0.00 in0.0 mm
08:47 PM 50.1°F10.1°C 41.5°F5.3°C 72% 1.0 mph WSW1.6 kmh WSW 2.0 mph3.2 kmh 29.97 in1014.9 mb 0.00 in0.0 mm 0.00 in0.0 mm 0.00 in0.0 mm
08:52 PM 50.2°F10.1°C 41.6°F5.3°C 72% 1.3 mph SW2.1 kmh SW 2.0 mph3.2 kmh 29.97 in1014.9 mb 0.00 in0.0 mm 0.00 in0.0 mm 0.00 in0.0 mm
08:57 PM 50.6°F10.3°C 41.5°F5.3°C 71% 1.4 mph SW2.3 kmh SW 2.0 mph3.2 kmh 29.97 in1014.9 mb 0.00 in0.0 mm 0.00 in0.0 mm 0.00 in0.0 mm
09:02 PM 50.9°F10.5°C 41.5°F5.3°C 70% 1.6 mph SW2.6 kmh SW 3.0 mph4.8 kmh 29.97 in1014.9 mb 0.00 in0.0 mm 0.00 in0.0 mm 0.00 in0.0 mm
09:07 PM 51.3°F10.7°C 42.0°F5.6°C 70% 1.6 mph SW2.6 kmh SW 3.0 mph4.8 kmh 29.98 in1015.2 mb 0.00 in0.0 mm 0.00 in0.0 mm 0.00 in0.0 mm
09:12 PM 51.5°F10.8°C 41.8°F5.4°C 69% 2.8 mph SW4.5 kmh SW 5.0 mph8.0 kmh 29.98 in1015.2 mb 0.00 in0.0 mm 0.00 in0.0 mm 0.00 in0.0 mm
09:17 PM 51.6°F10.9°C 41.9°F5.5°C 69% 2.2 mph SW3.5 kmh SW 5.0 mph8.0 kmh 29.98 in1015.2 mb 0.00 in0.0 mm 0.00 in0.0 mm 0.00 in0.0 mm
09:20 PM 51.5°F10.8°C 41.8°F5.4°C 69% 1.9 mph SW3.1 kmh SW 5.0 mph8.0 kmh 29.98 in1015.2 mb 0.00 in0.0 mm 0.00 in0.0 mm 0.00 in0.0 mm
09:25 PM 51.2°F10.7°C 41.7°F5.4°C 70% 2.3 mph SW3.7 kmh SW 5.0 mph8.0 kmh 29.98 in1015.2 mb 0.00 in0.0 mm 0.00 in0.0 mm 0.00 in0.0 mm
09:30 PM 50.6°F10.3°C 41.5°F5.3°C 71% 1.1 mph SW1.8 kmh SW 5.0 mph8.0 kmh 29.98 in1015.2 mb 0.00 in0.0 mm 0.00 in0.0 mm 0.00 in0.0 mm
09:35 PM 49.9°F9.9°C 41.7°F5.4°C 73% 1.0 mph SW1.6 kmh SW 4.0 mph6.4 kmh 29.98 in1015.2 mb 0.00 in0.0 mm 0.00 in0.0 mm 0.00 in0.0 mm
09:40 PM 49.3°F9.6°C 41.4°F5.2°C 74% 1.0 mph SW1.6 kmh SW 4.0 mph6.4 kmh 29.98 in1015.2 mb 0.00 in0.0 mm 0.00 in0.0 mm 0.00 in0.0 mm
09:45 PM 49.1°F9.5°C 41.6°F5.3°C 75% 1.0 mph SW1.6 kmh SW 3.0 mph4.8 kmh 29.98 in1015.2 mb 0.00 in0.0 mm 0.00 in0.0 mm 0.00 in0.0 mm
09:50 PM 49.1°F9.5°C 41.5°F5.3°C 75% 1.0 mph SW1.6 kmh SW 2.0 mph3.2 kmh 29.98 in1015.2 mb 0.00 in0.0 mm 0.00 in0.0 mm 0.00 in0.0 mm
09:55 PM 49.3°F9.6°C 41.4°F5.2°C 74% 1.2 mph SW1.9 kmh SW 2.0 mph3.2 kmh 29.98 in1015.2 mb 0.00 in0.0 mm 0.00 in0.0 mm 0.00 in0.0 mm
10:00 PM 49.2°F9.6°C 41.3°F5.2°C 74% Calm Calm 2.0 mph3.2 kmh 29.98 in1015.2 mb 0.00 in0.0 mm 0.00 in0.0 mm 0.00 in0.0 mm
10:05 PM 48.7°F9.3°C 41.2°F5.1°C 75% 1.0 mph SW1.6 kmh SW 2.0 mph3.2 kmh 29.98 in1015.2 mb 0.00 in0.0 mm 0.00 in0.0 mm 0.00 in0.0 mm
10:10 PM 48.9°F9.4°C 41.4°F5.2°C 75% 1.2 mph SW1.9 kmh SW 2.0 mph3.2 kmh 29.98 in1015.2 mb 0.00 in0.0 mm 0.00 in0.0 mm 0.00 in0.0 mm
10:15 PM 49.1°F9.5°C 41.2°F5.1°C 74% 1.1 mph SW1.8 kmh SW 3.0 mph4.8 kmh 29.98 in1015.2 mb 0.00 in0.0 mm 0.00 in0.0 mm 0.00 in0.0 mm
10:20 PM 48.9°F9.4°C 41.4°F5.2°C 75% 1.0 mph SW1.6 kmh SW 3.0 mph4.8 kmh 29.99 in1015.6 mb 0.00 in0.0 mm 0.00 in0.0 mm 0.00 in0.0 mm
10:26 PM 48.5°F9.2°C 41.3°F5.2°C 76% 1.0 mph SW1.6 kmh SW 3.0 mph4.8 kmh 29.99 in1015.6 mb 0.00 in0.0 mm 0.00 in0.0 mm 0.00 in0.0 mm
10:30 PM 47.9°F8.8°C 41.0°F5.0°C 77% Calm Calm 2.0 mph3.2 kmh 29.99 in1015.6 mb 0.00 in0.0 mm 0.00 in0.0 mm 0.00 in0.0 mm
10:36 PM 47.4°F8.6°C 40.9°F4.9°C 78% Calm Calm 2.0 mph3.2 kmh 29.99 in1015.6 mb 0.00 in0.0 mm 0.00 in0.0 mm 0.00 in0.0 mm
10:41 PM 47.1°F8.4°C 41.0°F5.0°C 79% 1.0 mph SW1.6 kmh SW 1.0 mph1.6 kmh 29.99 in1015.6 mb 0.00 in0.0 mm 0.00 in0.0 mm 0.00 in0.0 mm
10:46 PM 47.0°F8.3°C 40.9°F4.9°C 79% 2.0 mph SW3.2 kmh SW 4.0 mph6.4 kmh 30.00 in1015.9 mb 0.00 in0.0 mm 0.00 in0.0 mm 0.00 in0.0 mm
10:51 PM 47.1°F8.4°C 41.0°F5.0°C 79% 2.0 mph SW3.2 kmh SW 5.0 mph8.0 kmh 30.00 in1015.9 mb 0.00 in0.0 mm 0.00 in0.0 mm 0.00 in0.0 mm
10:56 PM 47.1°F8.4°C 40.9°F4.9°C 79% 1.9 mph SW3.1 kmh SW 5.0 mph8.0 kmh 30.00 in1015.9 mb 0.00 in0.0 mm 0.00 in0.0 mm 0.00 in0.0 mm
11:01 PM 47.2°F8.4°C 41.1°F5.1°C 79% 1.9 mph SW3.1 kmh SW 5.0 mph8.0 kmh 30.00 in1015.9 mb 0.00 in0.0 mm 0.00 in0.0 mm 0.00 in0.0 mm
11:06 PM 47.1°F8.4°C 41.0°F5.0°C 79% 2.1 mph SW3.4 kmh SW 5.0 mph8.0 kmh 30.00 in1015.9 mb 0.00 in0.0 mm 0.00 in0.0 mm 0.00 in0.0 mm
11:11 PM 46.9°F8.3°C 41.1°F5.1°C 80% 1.5 mph SW2.4 kmh SW 5.0 mph8.0 kmh 30.00 in1015.9 mb 0.00 in0.0 mm 0.00 in0.0 mm 0.00 in0.0 mm
11:16 PM 46.7°F8.2°C 40.9°F4.9°C 80% 1.3 mph SW2.1 kmh SW 5.0 mph8.0 kmh 30.00 in1015.9 mb 0.00 in0.0 mm 0.00 in0.0 mm 0.00 in0.0 mm
11:21 PM 46.9°F8.3°C 40.8°F4.9°C 79% 1.8 mph SW2.9 kmh SW 5.0 mph8.0 kmh 30.00 in1015.9 mb 0.00 in0.0 mm 0.00 in0.0 mm 0.00 in0.0 mm
11:26 PM 47.4°F8.6°C 40.9°F4.9°C 78% 1.4 mph SW2.3 kmh SW 4.0 mph6.4 kmh 30.00 in1015.9 mb 0.00 in0.0 mm 0.00 in0.0 mm 0.00 in0.0 mm
11:31 PM 47.7°F8.7°C 40.9°F4.9°C 77% 2.0 mph SW3.2 kmh SW 6.0 mph9.7 kmh 30.00 in1015.9 mb 0.00 in0.0 mm 0.00 in0.0 mm 0.00 in0.0 mm
11:36 PM 48.2°F9.0°C 41.0°F5.0°C 76% 2.5 mph SW4.0 kmh SW 6.0 mph9.7 kmh 30.00 in1015.9 mb 0.00 in0.0 mm 0.00 in0.0 mm 0.00 in0.0 mm
11:41 PM 48.8°F9.3°C 41.0°F5.0°C 74% 2.2 mph SW3.5 kmh SW 6.0 mph9.7 kmh 30.00 in1015.9 mb 0.00 in0.0 mm 0.00 in0.0 mm 0.00 in0.0 mm
11:46 PM 49.1°F9.5°C 40.9°F4.9°C 73% 1.4 mph WSW2.3 kmh WSW 6.0 mph9.7 kmh 30.00 in1015.9 mb 0.00 in0.0 mm 0.00 in0.0 mm 0.00 in0.0 mm
11:51 PM 49.2°F9.6°C 40.6°F4.8°C 72% 2.0 mph WSW3.2 kmh WSW 6.0 mph9.7 kmh 30.00 in1015.9 mb 0.00 in0.0 mm 0.00 in0.0 mm 0.00 in0.0 mm
11:56 PM 49.0°F9.4°C 40.7°F4.8°C 73% 2.1 mph SW3.4 kmh SW 6.0 mph9.7 kmh 30.00 in1015.9 mb 0.00 in0.0 mm 0.00 in0.0 mm 0.00 in0.0 mm